sensor_id;sensor_type;location;lat;lon;timestamp;pressure;altitude;pressure_sealevel;temperature;humidity
35655;BME280;21773;50.010;19.972;2023-12-29T00:02:45;98709.91;;;12.28;100.00
35655;BME280;21773;50.010;19.972;2023-12-29T00:05:49;98696.06;;;12.24;100.00
35655;BME280;21773;50.010;19.972;2023-12-29T00:08:52;98715.69;;;12.20;100.00
35655;BME280;21773;50.010;19.972;2023-12-29T00:11:56;98707.34;;;12.21;100.00
35655;BME280;21773;50.010;19.972;2023-12-29T00:14:59;98713.09;;;12.25;100.00
35655;BME280;21773;50.010;19.972;2023-12-29T00:18:02;98717.09;;;12.22;100.00
35655;BME280;21773;50.010;19.972;2023-12-29T00:21:06;98721.91;;;12.20;100.00
35655;BME280;21773;50.010;19.972;2023-12-29T00:24:10;98717.09;;;12.22;100.00
35655;BME280;21773;50.010;19.972;2023-12-29T00:27:14;98715.56;;;12.26;100.00
35655;BME280;21773;50.010;19.972;2023-12-29T00:30:18;98713.22;;;12.30;100.00
35655;BME280;21773;50.010;19.972;2023-12-29T00:33:22;98703.56;;;12.34;100.00
35655;BME280;21773;50.010;19.972;2023-12-29T00:36:25;98699.31;;;12.38;100.00
35655;BME280;21773;50.010;19.972;2023-12-29T00:39:30;98697.44;;;12.38;100.00
35655;BME280;21773;50.010;19.972;2023-12-29T00:42:42;98696.75;;;12.31;100.00
35655;BME280;21773;50.010;19.972;2023-12-29T00:45:45;98682.09;;;12.15;100.00
35655;BME280;21773;50.010;19.972;2023-12-29T00:48:49;98699.00;;;12.23;100.00
35655;BME280;21773;50.010;19.972;2023-12-29T00:51:52;98688.06;;;12.18;100.00
35655;BME280;21773;50.010;19.972;2023-12-29T00:54:55;98685.50;;;12.11;100.00
35655;BME280;21773;50.010;19.972;2023-12-29T00:58:00;98678.69;;;12.08;100.00
35655;BME280;21773;50.010;19.972;2023-12-29T01:01:06;98683.41;;;12.01;100.00
35655;BME280;21773;50.010;19.972;2023-12-29T01:04:10;98671.38;;;11.97;100.00
35655;BME280;21773;50.010;19.972;2023-12-29T01:07:13;98678.44;;;11.98;100.00
35655;BME280;21773;50.010;19.972;2023-12-29T01:10:16;98680.09;;;11.99;100.00
35655;BME280;21773;50.010;19.972;2023-12-29T01:13:21;98670.34;;;11.98;100.00
35655;BME280;21773;50.010;19.972;2023-12-29T01:16:25;98659.53;;;11.98;100.00
35655;BME280;21773;50.010;19.972;2023-12-29T01:19:28;98676.00;;;11.97;100.00
35655;BME280;21773;50.010;19.972;2023-12-29T01:22:32;98678.09;;;11.95;100.00
35655;BME280;21773;50.010;19.972;2023-12-29T01:25:35;98669.66;;;11.91;100.00
35655;BME280;21773;50.010;19.972;2023-12-29T01:28:39;98664.97;;;11.87;100.00
35655;BME280;21773;50.010;19.972;2023-12-29T01:31:43;98663.75;;;11.83;100.00
35655;BME280;21773;50.010;19.972;2023-12-29T01:34:47;98659.78;;;11.85;100.00
35655;BME280;21773;50.010;19.972;2023-12-29T01:37:50;98638.53;;;11.89;100.00
35655;BME280;21773;50.010;19.972;2023-12-29T01:40:53;98659.78;;;11.85;100.00
35655;BME280;21773;50.010;19.972;2023-12-29T01:44:19;98654.88;;;11.82;100.00
35655;BME280;21773;50.010;19.972;2023-12-29T01:47:24;98657.78;;;11.81;100.00
35655;BME280;21773;50.010;19.972;2023-12-29T01:50:27;98656.38;;;11.78;100.00
35655;BME280;21773;50.010;19.972;2023-12-29T01:53:31;98650.06;;;11.73;100.00
35655;BME280;21773;50.010;19.972;2023-12-29T01:56:48;98644.66;;;11.73;100.00
35655;BME280;21773;50.010;19.972;2023-12-29T01:59:54;98638.41;;;11.72;100.00
35655;BME280;21773;50.010;19.972;2023-12-29T02:02:57;98635.47;;;11.73;100.00
35655;BME280;21773;50.010;19.972;2023-12-29T02:06:01;98633.59;;;11.74;100.00
35655;BME280;21773;50.010;19.972;2023-12-29T02:09:05;98622.78;;;11.74;100.00
35655;BME280;21773;50.010;19.972;2023-12-29T02:12:08;98624.88;;;11.72;100.00
35655;BME280;21773;50.010;19.972;2023-12-29T02:15:13;98622.19;;;11.72;100.00
35655;BME280;21773;50.010;19.972;2023-12-29T02:18:18;98618.31;;;11.56;100.00
35655;BME280;21773;50.010;19.972;2023-12-29T02:21:24;98594.94;;;11.62;100.00
35655;BME280;21773;50.010;19.972;2023-12-29T02:24:27;98602.34;;;11.55;100.00
35655;BME280;21773;50.010;19.972;2023-12-29T02:27:41;98600.13;;;11.52;100.00
35655;BME280;21773;50.010;19.972;2023-12-29T02:31:00;98600.00;;;11.47;100.00
35655;BME280;21773;50.010;19.972;2023-12-29T02:34:07;98598.13;;;11.47;100.00
35655;BME280;21773;50.010;19.972;2023-12-29T02:37:13;98600.22;;;11.45;100.00
35655;BME280;21773;50.010;19.972;2023-12-29T02:40:17;98596.69;;;11.45;100.00
35655;BME280;21773;50.010;19.972;2023-12-29T02:43:21;98589.91;;;11.42;100.00
35655;BME280;21773;50.010;19.972;2023-12-29T02:46:25;98603.63;;;11.41;100.00
35655;BME280;21773;50.010;19.972;2023-12-29T02:49:28;98588.47;;;11.40;100.00
35655;BME280;21773;50.010;19.972;2023-12-29T02:52:31;98587.22;;;11.42;100.00
35655;BME280;21773;50.010;19.972;2023-12-29T02:55:34;98581.31;;;11.45;100.00
35655;BME280;21773;50.010;19.972;2023-12-29T02:58:39;98556.34;;;11.38;100.00
35655;BME280;21773;50.010;19.972;2023-12-29T03:01:43;98569.81;;;11.50;100.00
35655;BME280;21773;50.010;19.972;2023-12-29T03:04:46;98575.00;;;11.51;100.00
35655;BME280;21773;50.010;19.972;2023-12-29T03:07:50;98573.34;;;11.50;100.00
35655;BME280;21773;50.010;19.972;2023-12-29T03:10:54;98566.56;;;11.48;100.00
35655;BME280;21773;50.010;19.972;2023-12-29T03:13:58;98558.34;;;11.43;100.00
35655;BME280;21773;50.010;19.972;2023-12-29T03:17:01;98563.97;;;11.41;100.00
35655;BME280;21773;50.010;19.972;2023-12-29T03:20:05;98566.31;;;11.38;100.00
35655;BME280;21773;50.010;19.972;2023-12-29T03:23:09;98546.13;;;11.17;100.00
35655;BME280;21773;50.010;19.972;2023-12-29T03:26:12;98557.84;;;11.22;100.00
35655;BME280;21773;50.010;19.972;2023-12-29T03:29:18;98552.56;;;11.16;100.00
35655;BME280;21773;50.010;19.972;2023-12-29T03:32:21;98542.69;;;11.10;100.00
35655;BME280;21773;50.010;19.972;2023-12-29T03:35:24;98541.31;;;11.07;100.00
35655;BME280;21773;50.010;19.972;2023-12-29T03:38:28;98536.38;;;11.04;100.00
35655;BME280;21773;50.010;19.972;2023-12-29T03:41:31;98525.09;;;10.96;100.00
35655;BME280;21773;50.010;19.972;2023-12-29T03:44:35;98534.59;;;11.10;100.00
35655;BME280;21773;50.010;19.972;2023-12-29T03:47:38;98526.63;;;11.15;100.00
35655;BME280;21773;50.010;19.972;2023-12-29T03:50:41;98533.31;;;11.24;100.00
35655;BME280;21773;50.010;19.972;2023-12-29T03:53:45;98529.34;;;11.38;100.00
35655;BME280;21773;50.010;19.972;2023-12-29T03:56:48;98509.41;;;11.27;100.00
35655;BME280;21773;50.010;19.972;2023-12-29T03:59:52;98522.16;;;11.55;100.00
35655;BME280;21773;50.010;19.972;2023-12-29T04:02:56;98521.34;;;11.66;100.00
35655;BME280;21773;50.010;19.972;2023-12-29T04:05:59;98527.91;;;11.82;100.00
35655;BME280;21773;50.010;19.972;2023-12-29T04:09:02;98519.06;;;11.98;100.00
35655;BME280;21773;50.010;19.972;2023-12-29T04:12:06;98527.84;;;12.05;100.00
35655;BME280;21773;50.010;19.972;2023-12-29T04:15:11;98525.91;;;12.18;100.00
35655;BME280;21773;50.010;19.972;2023-12-29T04:18:14;98515.78;;;12.25;100.00
35655;BME280;21773;50.010;19.972;2023-12-29T04:21:17;98513.38;;;12.40;100.00
35655;BME280;21773;50.010;19.972;2023-12-29T04:24:20;98526.81;;;12.51;100.00
35655;BME280;21773;50.010;19.972;2023-12-29T04:27:24;98514.56;;;12.61;100.00
35655;BME280;21773;50.010;19.972;2023-12-29T04:30:28;98521.31;;;12.75;100.00
35655;BME280;21773;50.010;19.972;2023-12-29T04:33:31;98518.78;;;12.85;100.00
35655;BME280;21773;50.010;19.972;2023-12-29T04:36:35;98518.88;;;12.90;100.00
35655;BME280;21773;50.010;19.972;2023-12-29T04:39:38;98514.31;;;12.95;100.00
35655;BME280;21773;50.010;19.972;2023-12-29T04:42:41;98513.84;;;12.98;100.00
35655;BME280;21773;50.010;19.972;2023-12-29T04:45:46;98504.50;;;13.06;100.00
35655;BME280;21773;50.010;19.972;2023-12-29T04:48:49;98509.53;;;13.14;100.00
35655;BME280;21773;50.010;19.972;2023-12-29T04:51:53;98492.28;;;13.20;100.00
35655;BME280;21773;50.010;19.972;2023-12-29T04:54:56;98503.28;;;13.30;100.00
35655;BME280;21773;50.010;19.972;2023-12-29T04:57:59;98492.81;;;13.39;100.00
35655;BME280;21773;50.010;19.972;2023-12-29T05:01:04;98499.88;;;13.40;100.00
35655;BME280;21773;50.010;19.972;2023-12-29T05:04:07;98501.09;;;13.49;100.00
35655;BME280;21773;50.010;19.972;2023-12-29T05:07:11;98499.28;;;13.55;100.00
35655;BME280;21773;50.010;19.972;2023-12-29T05:10:14;98492.06;;;13.60;100.00
35655;BME280;21773;50.010;19.972;2023-12-29T05:13:18;98495.59;;;13.61;100.00
35655;BME280;21773;50.010;19.972;2023-12-29T05:16:23;98500.25;;;13.65;100.00
35655;BME280;21773;50.010;19.972;2023-12-29T05:19:26;98498.13;;;13.67;100.00
35655;BME280;21773;50.010;19.972;2023-12-29T05:22:29;98486.59;;;13.77;100.00
35655;BME280;21773;50.010;19.972;2023-12-29T05:25:32;98495.09;;;13.85;100.00
35655;BME280;21773;50.010;19.972;2023-12-29T05:28:35;98503.09;;;13.97;100.00
35655;BME280;21773;50.010;19.972;2023-12-29T05:31:40;98498.06;;;14.06;100.00
35655;BME280;21773;50.010;19.972;2023-12-29T05:34:43;98502.13;;;14.08;100.00
35655;BME280;21773;50.010;19.972;2023-12-29T05:37:46;98496.81;;;14.18;100.00
35655;BME280;21773;50.010;19.972;2023-12-29T05:40:50;98502.88;;;14.25;100.00
35655;BME280;21773;50.010;19.972;2023-12-29T05:43:53;98495.00;;;14.24;100.00
35655;BME280;21773;50.010;19.972;2023-12-29T05:46:57;98499.28;;;14.20;100.00
35655;BME280;21773;50.010;19.972;2023-12-29T05:50:00;98503.00;;;14.14;100.00
35655;BME280;21773;50.010;19.972;2023-12-29T05:53:04;98508.59;;;14.02;100.00
35655;BME280;21773;50.010;19.972;2023-12-29T05:56:09;98521.88;;;14.04;100.00
35655;BME280;21773;50.010;19.972;2023-12-29T05:59:12;98509.66;;;14.01;100.00
35655;BME280;21773;50.010;19.972;2023-12-29T06:02:16;98511.28;;;14.02;100.00
35655;BME280;21773;50.010;19.972;2023-12-29T06:05:19;98509.38;;;14.03;100.00
35655;BME280;21773;50.010;19.972;2023-12-29T06:08:23;98511.28;;;14.02;100.00
35655;BME280;21773;50.010;19.972;2023-12-29T06:11:26;98512.09;;;14.03;100.00
35655;BME280;21773;50.010;19.972;2023-12-29T06:14:29;98516.19;;;14.05;100.00
35655;BME280;21773;50.010;19.972;2023-12-29T06:17:33;98505.34;;;14.05;100.00
35655;BME280;21773;50.010;19.972;2023-12-29T06:20:37;98506.41;;;14.04;100.00
35655;BME280;21773;50.010;19.972;2023-12-29T06:23:40;98507.81;;;14.07;100.00
35655;BME280;21773;50.010;19.972;2023-12-29T06:26:44;98508.88;;;14.06;100.00
35655;BME280;21773;50.010;19.972;2023-12-29T06:29:47;98502.13;;;14.08;100.00
35655;BME280;21773;50.010;19.972;2023-12-29T06:32:51;98505.66;;;14.09;100.00
35655;BME280;21773;50.010;19.972;2023-12-29T06:35:55;98505.47;;;14.15;100.00
35655;BME280;21773;50.010;19.972;2023-12-29T06:38:58;98500.34;;;14.19;100.00
35655;BME280;21773;50.010;19.972;2023-12-29T06:42:01;98499.03;;;14.21;100.00
35655;BME280;21773;50.010;19.972;2023-12-29T06:45:05;98506.34;;;14.21;100.00
35655;BME280;21773;50.010;19.972;2023-12-29T06:48:11;98514.72;;;14.19;100.00
35655;BME280;21773;50.010;19.972;2023-12-29T06:51:18;98518.84;;;14.22;100.00
35655;BME280;21773;50.010;19.972;2023-12-29T06:54:21;98510.38;;;14.18;100.00
35655;BME280;21773;50.010;19.972;2023-12-29T06:57:24;98505.06;;;14.28;100.00
35655;BME280;21773;50.010;19.972;2023-12-29T07:00:28;98510.25;;;14.30;100.00
35655;BME280;21773;50.010;19.972;2023-12-29T07:03:32;98522.75;;;14.31;100.00
35655;BME280;21773;50.010;19.972;2023-12-29T07:06:36;98524.09;;;14.33;100.00
35655;BME280;21773;50.010;19.972;2023-12-29T07:09:39;98516.63;;;14.41;100.00
35655;BME280;21773;50.010;19.972;2023-12-29T07:12:43;98519.59;;;14.39;100.00
35655;BME280;21773;50.010;19.972;2023-12-29T07:15:46;98515.28;;;14.43;100.00
35655;BME280;21773;50.010;19.972;2023-12-29T07:18:51;98522.59;;;14.43;100.00
35655;BME280;21773;50.010;19.972;2023-12-29T07:21:54;98515.06;;;14.45;100.00
35655;BME280;21773;50.010;19.972;2023-12-29T07:24:58;98516.94;;;14.44;100.00
35655;BME280;21773;50.010;19.972;2023-12-29T07:28:01;98507.28;;;14.31;100.00
35655;BME280;21773;50.010;19.972;2023-12-29T07:31:05;98509.66;;;14.28;100.00
35655;BME280;21773;50.010;19.972;2023-12-29T07:34:11;98525.53;;;14.36;100.00
35655;BME280;21773;50.010;19.972;2023-12-29T07:37:14;98520.22;;;14.46;100.00
35655;BME280;21773;50.010;19.972;2023-12-29T07:40:17;98518.31;;;14.47;100.00
35655;BME280;21773;50.010;19.972;2023-12-29T07:43:21;98524.41;;;14.59;100.00
35655;BME280;21773;50.010;19.972;2023-12-29T07:46:24;98511.25;;;14.72;100.00
35655;BME280;21773;50.010;19.972;2023-12-29T07:49:29;98510.03;;;14.85;100.00
35655;BME280;21773;50.010;19.972;2023-12-29T07:52:32;98507.34;;;14.90;100.00
35655;BME280;21773;50.010;19.972;2023-12-29T07:55:37;98507.69;;;14.99;100.00
35655;BME280;21773;50.010;19.972;2023-12-29T07:58:41;98512.41;;;15.13;100.00
35655;BME280;21773;50.010;19.972;2023-12-29T08:01:47;98510.44;;;15.46;100.00
35655;BME280;21773;50.010;19.972;2023-12-29T08:04:52;98526.25;;;17.29;100.00
35655;BME280;21773;50.010;19.972;2023-12-29T08:07:57;98526.88;;;19.71;100.00
35655;BME280;21773;50.010;19.972;2023-12-29T08:11:00;98523.00;;;21.51;100.00
35655;BME280;21773;50.010;19.972;2023-12-29T08:14:03;98516.22;;;22.71;100.00
35655;BME280;21773;50.010;19.972;2023-12-29T08:17:07;98522.69;;;24.26;100.00
35655;BME280;21773;50.010;19.972;2023-12-29T08:20:12;98527.84;;;25.27;100.00
35655;BME280;21773;50.010;19.972;2023-12-29T08:23:15;98526.72;;;26.59;100.00
35655;BME280;21773;50.010;19.972;2023-12-29T08:26:18;98525.84;;;28.08;95.58
35655;BME280;21773;50.010;19.972;2023-12-29T08:29:22;98520.84;;;28.98;88.11
35655;BME280;21773;50.010;19.972;2023-12-29T08:32:27;98524.41;;;28.99;87.08
35655;BME280;21773;50.010;19.972;2023-12-29T08:35:31;98529.47;;;27.63;88.68
35655;BME280;21773;50.010;19.972;2023-12-29T08:38:35;98529.47;;;27.09;93.97
35655;BME280;21773;50.010;19.972;2023-12-29T08:41:38;98526.88;;;28.64;85.38
35655;BME280;21773;50.010;19.972;2023-12-29T08:44:41;98534.69;;;30.76;80.05
35655;BME280;21773;50.010;19.972;2023-12-29T08:47:44;98538.09;;;32.23;72.74
35655;BME280;21773;50.010;19.972;2023-12-29T08:50:49;98535.00;;;32.81;69.29
35655;BME280;21773;50.010;19.972;2023-12-29T08:53:54;98534.38;;;32.15;69.62
35655;BME280;21773;50.010;19.972;2023-12-29T08:56:57;98531.56;;;32.38;71.20
35655;BME280;21773;50.010;19.972;2023-12-29T09:00:00;98535.47;;;32.11;68.85
35655;BME280;21773;50.010;19.972;2023-12-29T09:03:04;98538.59;;;30.90;71.72
35655;BME280;21773;50.010;19.972;2023-12-29T09:06:09;98540.69;;;30.93;73.03
35655;BME280;21773;50.010;19.972;2023-12-29T09:09:12;98534.34;;;31.51;71.97
35655;BME280;21773;50.010;19.972;2023-12-29T09:12:15;98546.25;;;29.68;72.67
35655;BME280;21773;50.010;19.972;2023-12-29T09:15:20;98533.38;;;27.95;79.13
35655;BME280;21773;50.010;19.972;2023-12-29T09:18:23;98535.03;;;26.30;86.67
35655;BME280;21773;50.010;19.972;2023-12-29T09:21:28;98536.25;;;24.79;93.84
35655;BME280;21773;50.010;19.972;2023-12-29T09:24:31;98513.78;;;23.50;100.00
35655;BME280;21773;50.010;19.972;2023-12-29T09:27:34;98524.06;;;23.00;100.00
35655;BME280;21773;50.010;19.972;2023-12-29T09:30:37;98523.66;;;22.43;100.00
35655;BME280;21773;50.010;19.972;2023-12-29T09:33:40;98517.88;;;21.90;100.00
35655;BME280;21773;50.010;19.972;2023-12-29T09:36:45;98526.66;;;21.46;100.00
35655;BME280;21773;50.010;19.972;2023-12-29T09:39:48;98501.09;;;21.00;100.00
35655;BME280;21773;50.010;19.972;2023-12-29T09:42:51;98499.56;;;20.94;100.00
35655;BME280;21773;50.010;19.972;2023-12-29T09:45:55;98504.91;;;21.96;100.00
35655;BME280;21773;50.010;19.972;2023-12-29T09:49:02;98498.47;;;22.91;100.00
35655;BME280;21773;50.010;19.972;2023-12-29T09:52:10;98486.44;;;23.54;100.00
35655;BME280;21773;50.010;19.972;2023-12-29T09:55:14;98478.00;;;23.90;100.00
35655;BME280;21773;50.010;19.972;2023-12-29T09:58:19;98479.44;;;24.18;99.21
35655;BME280;21773;50.010;19.972;2023-12-29T10:01:25;98489.50;;;24.48;97.74
35655;BME280;21773;50.010;19.972;2023-12-29T10:04:31;98477.97;;;24.29;95.73
35655;BME280;21773;50.010;19.972;2023-12-29T10:07:39;98469.94;;;24.02;97.47
35655;BME280;21773;50.010;19.972;2023-12-29T10:10:43;98468.28;;;23.53;99.43
35655;BME280;21773;50.010;19.972;2023-12-29T10:13:49;98464.75;;;23.30;100.00
35655;BME280;21773;50.010;19.972;2023-12-29T10:16:57;98460.28;;;23.43;100.00
35655;BME280;21773;50.010;19.972;2023-12-29T10:20:07;98451.78;;;23.53;99.20
35655;BME280;21773;50.010;19.972;2023-12-29T10:23:19;98459.16;;;23.44;99.88
35655;BME280;21773;50.010;19.972;2023-12-29T10:26:23;98456.91;;;23.46;100.00
35655;BME280;21773;50.010;19.972;2023-12-29T10:29:27;98458.31;;;23.65;99.31
35655;BME280;21773;50.010;19.972;2023-12-29T10:32:30;98450.28;;;23.78;98.38
35655;BME280;21773;50.010;19.972;2023-12-29T10:35:34;98442.31;;;23.76;97.74
35655;BME280;21773;50.010;19.972;2023-12-29T10:38:40;98448.59;;;24.16;95.91
35655;BME280;21773;50.010;19.972;2023-12-29T10:41:44;98434.00;;;24.15;96.71
35655;BME280;21773;50.010;19.972;2023-12-29T10:44:47;98455.97;;;23.90;96.37
35655;BME280;21773;50.010;19.972;2023-12-29T10:48:07;98440.16;;;23.33;97.85
35655;BME280;21773;50.010;19.972;2023-12-29T10:51:10;98434.97;;;23.01;100.00
35655;BME280;21773;50.010;19.972;2023-12-29T10:54:19;98432.84;;;22.76;100.00
35655;BME280;21773;50.010;19.972;2023-12-29T10:57:25;98429.06;;;22.14;100.00
35655;BME280;21773;50.010;19.972;2023-12-29T11:00:29;98430.06;;;21.90;100.00
35655;BME280;21773;50.010;19.972;2023-12-29T11:03:32;98428.75;;;21.47;100.00
35655;BME280;21773;50.010;19.972;2023-12-29T11:06:45;98432.69;;;21.27;100.00
35655;BME280;21773;50.010;19.972;2023-12-29T11:09:51;98427.91;;;20.68;100.00
35655;BME280;21773;50.010;19.972;2023-12-29T11:12:56;98438.19;;;20.20;100.00
35655;BME280;21773;50.010;19.972;2023-12-29T11:16:00;98423.94;;;19.80;100.00
35655;BME280;21773;50.010;19.972;2023-12-29T11:19:05;98424.28;;;19.50;100.00
35655;BME280;21773;50.010;19.972;2023-12-29T11:22:11;98421.47;;;19.31;100.00
35655;BME280;21773;50.010;19.972;2023-12-29T11:25:16;98415.59;;;19.19;100.00
35655;BME280;21773;50.010;19.972;2023-12-29T11:28:19;98417.53;;;19.42;100.00
35655;BME280;21773;50.010;19.972;2023-12-29T11:31:22;98424.00;;;19.52;100.00
35655;BME280;21773;50.010;19.972;2023-12-29T11:34:34;98413.50;;;19.35;100.00
35655;BME280;21773;50.010;19.972;2023-12-29T11:38:01;98424.59;;;19.20;100.00
35655;BME280;21773;50.010;19.972;2023-12-29T11:41:10;98413.06;;;18.99;100.00
35655;BME280;21773;50.010;19.972;2023-12-29T11:44:24;98417.38;;;18.76;100.00
35655;BME280;21773;50.010;19.972;2023-12-29T11:47:37;98412.81;;;18.67;100.00
35655;BME280;21773;50.010;19.972;2023-12-29T11:50:41;98414.47;;;18.57;100.00
35655;BME280;21773;50.010;19.972;2023-12-29T11:53:46;98409.34;;;18.51;100.00
35655;BME280;21773;50.010;19.972;2023-12-29T11:56:51;98405.47;;;18.57;100.00
35655;BME280;21773;50.010;19.972;2023-12-29T11:59:55;98404.41;;;18.87;100.00
35655;BME280;21773;50.010;19.972;2023-12-29T12:02:58;98396.84;;;19.08;100.00
35655;BME280;21773;50.010;19.972;2023-12-29T12:06:02;98394.94;;;19.32;100.00
35655;BME280;21773;50.010;19.972;2023-12-29T12:09:16;98412.50;;;19.55;100.00
35655;BME280;21773;50.010;19.972;2023-12-29T12:12:39;98415.88;;;19.41;100.00
35655;BME280;21773;50.010;19.972;2023-12-29T12:15:44;98421.16;;;19.62;100.00
35655;BME280;21773;50.010;19.972;2023-12-29T12:18:47;98412.84;;;19.48;100.00
35655;BME280;21773;50.010;19.972;2023-12-29T12:21:53;98413.88;;;19.52;100.00
35655;BME280;21773;50.010;19.972;2023-12-29T12:24:59;98399.69;;;19.74;100.00
35655;BME280;21773;50.010;19.972;2023-12-29T12:28:07;98410.28;;;19.99;100.00
35655;BME280;21773;50.010;19.972;2023-12-29T12:31:12;98408.69;;;20.17;100.00
35655;BME280;21773;50.010;19.972;2023-12-29T12:34:16;98388.56;;;20.26;100.00
35655;BME280;21773;50.010;19.972;2023-12-29T12:37:21;98399.16;;;20.33;100.00
35655;BME280;21773;50.010;19.972;2023-12-29T12:40:25;98408.69;;;20.17;100.00
35655;BME280;21773;50.010;19.972;2023-12-29T12:43:32;98408.28;;;20.05;100.00
35655;BME280;21773;50.010;19.972;2023-12-29T12:46:42;98411.09;;;20.00;100.00
35655;BME280;21773;50.010;19.972;2023-12-29T12:49:48;98410.94;;;19.91;100.00
35655;BME280;21773;50.010;19.972;2023-12-29T12:52:51;98410.16;;;19.67;100.00
35655;BME280;21773;50.010;19.972;2023-12-29T12:55:55;98413.53;;;19.59;100.00
35655;BME280;21773;50.010;19.972;2023-12-29T12:59:02;98408.94;;;19.54;100.00
35655;BME280;21773;50.010;19.972;2023-12-29T13:02:07;98418.13;;;19.63;100.00
35655;BME280;21773;50.010;19.972;2023-12-29T13:05:12;98407.34;;;19.72;100.00
35655;BME280;21773;50.010;19.972;2023-12-29T13:08:17;98403.41;;;19.83;100.00
35655;BME280;21773;50.010;19.972;2023-12-29T13:11:35;98401.91;;;19.90;100.00
35655;BME280;21773;50.010;19.972;2023-12-29T13:14:40;98409.38;;;20.04;100.00
35655;BME280;21773;50.010;19.972;2023-12-29T13:17:50;98403.34;;;20.07;100.00
35655;BME280;21773;50.010;19.972;2023-12-29T13:20:53;98412.13;;;20.04;100.00
35655;BME280;21773;50.010;19.972;2023-12-29T13:23:56;98408.28;;;20.05;100.00
35655;BME280;21773;50.010;19.972;2023-12-29T13:27:04;98400.28;;;19.89;100.00
35655;BME280;21773;50.010;19.972;2023-12-29T13:30:10;98396.44;;;19.90;100.00
35655;BME280;21773;50.010;19.972;2023-12-29T13:33:19;98398.28;;;19.95;100.00
35655;BME280;21773;50.010;19.972;2023-12-29T13:36:33;98398.00;;;19.78;100.00
35655;BME280;21773;50.010;19.972;2023-12-29T13:39:43;98405.41;;;19.54;100.00
35655;BME280;21773;50.010;19.972;2023-12-29T13:42:48;98400.88;;;19.39;100.00
35655;BME280;21773;50.010;19.972;2023-12-29T13:45:55;98405.09;;;19.26;100.00
35655;BME280;21773;50.010;19.972;2023-12-29T13:48:59;98400.97;;;19.05;100.00
35655;BME280;21773;50.010;19.972;2023-12-29T13:52:03;98397.66;;;18.79;100.00
35655;BME280;21773;50.010;19.972;2023-12-29T13:55:07;98393.41;;;18.63;100.00
35655;BME280;21773;50.010;19.972;2023-12-29T13:58:11;98407.97;;;18.48;100.00
35655;BME280;21773;50.010;19.972;2023-12-29T14:01:16;98397.44;;;18.37;100.00
35655;BME280;21773;50.010;19.972;2023-12-29T14:04:19;98395.75;;;18.02;100.00
35655;BME280;21773;50.010;19.972;2023-12-29T14:07:24;98417.84;;;18.00;100.00
35655;BME280;21773;50.010;19.972;2023-12-29T14:10:31;98408.97;;;17.74;100.00
35655;BME280;21773;50.010;19.972;2023-12-29T14:13:35;98413.13;;;17.47;100.00
35655;BME280;21773;50.010;19.972;2023-12-29T14:16:40;98407.47;;;17.33;100.00
35655;BME280;21773;50.010;19.972;2023-12-29T14:19:43;98407.25;;;17.04;100.00
35655;BME280;21773;50.010;19.972;2023-12-29T14:22:46;98405.63;;;16.98;100.00
35655;BME280;21773;50.010;19.972;2023-12-29T14:25:49;98414.63;;;16.78;100.00
35655;BME280;21773;50.010;19.972;2023-12-29T14:29:00;98428.25;;;16.68;100.00
35655;BME280;21773;50.010;19.972;2023-12-29T14:32:05;98428.47;;;16.57;100.00
35655;BME280;21773;50.010;19.972;2023-12-29T14:35:08;98419.22;;;16.42;100.00
35655;BME280;21773;50.010;19.972;2023-12-29T14:38:12;98420.81;;;16.23;100.00
35655;BME280;21773;50.010;19.972;2023-12-29T14:41:19;98423.25;;;16.10;100.00
35655;BME280;21773;50.010;19.972;2023-12-29T14:44:22;98431.94;;;16.01;100.00
35655;BME280;21773;50.010;19.972;2023-12-29T14:47:27;98437.06;;;15.88;100.00
35655;BME280;21773;50.010;19.972;2023-12-29T14:50:30;98440.00;;;15.76;100.00
35655;BME280;21773;50.010;19.972;2023-12-29T14:53:33;98427.97;;;15.62;100.00
35655;BME280;21773;50.010;19.972;2023-12-29T14:56:36;98428.16;;;15.50;100.00
35655;BME280;21773;50.010;19.972;2023-12-29T14:59:39;98431.41;;;15.42;100.00
35655;BME280;21773;50.010;19.972;2023-12-29T15:02:44;98434.66;;;15.39;100.00
35655;BME280;21773;50.010;19.972;2023-12-29T15:05:47;98443.03;;;15.33;100.00
35655;BME280;21773;50.010;19.972;2023-12-29T15:08:50;98440.81;;;15.25;100.00
35655;BME280;21773;50.010;19.972;2023-12-29T15:11:54;98452.44;;;15.20;100.00
35655;BME280;21773;50.010;19.972;2023-12-29T15:14:57;98455.41;;;15.13;100.00
35655;BME280;21773;50.010;19.972;2023-12-29T15:18:01;98457.81;;;15.10;100.00
35655;BME280;21773;50.010;19.972;2023-12-29T15:21:05;98441.75;;;15.03;100.00
35655;BME280;21773;50.010;19.972;2023-12-29T15:24:08;98449.59;;;15.00;100.00
35655;BME280;21773;50.010;19.972;2023-12-29T15:27:11;98437.00;;;14.84;100.00
35655;BME280;21773;50.010;19.972;2023-12-29T15:30:14;98457.97;;;14.93;100.00
35655;BME280;21773;50.010;19.972;2023-12-29T15:33:19;98465.28;;;14.93;100.00
35655;BME280;21773;50.010;19.972;2023-12-29T15:36:23;98472.31;;;14.89;100.00
35655;BME280;21773;50.010;19.972;2023-12-29T15:39:26;98473.09;;;14.84;100.00
35655;BME280;21773;50.010;19.972;2023-12-29T15:42:29;98471.41;;;14.78;100.00
35655;BME280;21773;50.010;19.972;2023-12-29T15:45:33;98463.78;;;14.75;100.00
35655;BME280;21773;50.010;19.972;2023-12-29T15:48:37;98467.28;;;14.70;100.00
35655;BME280;21773;50.010;19.972;2023-12-29T15:51:41;98468.84;;;14.66;100.00
35655;BME280;21773;50.010;19.972;2023-12-29T15:54:44;98463.09;;;14.58;100.00